Rib Mountain, Wisconsin
Current Conditions -  °F | °C
As of 2:54 AM on Wednesday 26 Nov 2014 (Local Time) from KAUW Reporting Station
Overcast Overcast  
Wind Chill: 15°   Ceiling: 5500
Heat Index: 15°   Visibility: 9mi
Dew Point: 11°   Wind: 0mph
Humidity: 84%   Direction: NA
Pressure: 30.11"   Gusts: NA
Location:  45.0598°N, 89.4871°W
Report Text: KAUW 260854Z AUTO 00000KT 9SM OVC055 M09/M12 A3011 RMK AO2 SLP224 T10941117 53002
Loading
Personal Weather Stations






























Interactive Weather Map New forecast layout! Learn more

10-Day Weather Forecast

Advertisements
Track Severe Weather on mobile